Time;durP1;ratioP1;P1;durP2;ratioP2;P2;SDS_P1;SDS_P2;PMS_P1;PMS_P2;Temp;Humidity;BMP_temperature;BMP_pressure;BME280_temperature;BME280_humidity;BME280_pressure;Samples;Min_cycle;Max_cycle;Signal;HPM_P1;HPM_P2
2022/09/26 10:05:57;;;;;;;6.00;3.60;;;;;;;22.09;100.00;100176.69;1630138;87;22179;-55
2022/09/26 10:08:39;;;;;;;4.87;3.90;;;;;;;21.89;100.00;100181.91;1623511;87;21776;-58
2022/09/26 10:11:40;;;;;;;6.50;4.03;;;;;;;21.61;100.00;100182.59;1615942;87;21013;-61
2022/09/26 10:14:29;;;;;;;7.17;4.63;;;;;;;21.22;100.00;100182.08;1555182;92;21103;-56
2022/09/26 10:17:14;;;;;;;6.20;4.63;;;;;;;20.91;100.00;100185.83;1604183;89;21193;-55
2022/09/26 10:19:46;;;;;;;6.57;4.97;;;;;;;20.81;100.00;100175.14;1606004;87;21595;-57
2022/09/26 10:22:25;;;;;;;7.63;5.30;;;;;;;20.75;100.00;100165.54;1622364;86;21164;-61
2022/09/26 10:25:07;;;;;;;6.93;4.73;;;;;;;20.88;100.00;100162.48;1629891;87;21031;-58
2022/09/26 10:27:40;;;;;;;6.63;4.87;;;;;;;21.33;100.00;100165.20;1630239;87;21052;-64
2022/09/26 10:30:29;;;;;;;6.30;4.93;;;;;;;21.71;100.00;100161.95;1609373;87;21075;-59
2022/09/26 10:32:59;;;;;;;6.43;5.63;;;;;;;22.00;100.00;100144.53;1630381;87;21159;-61
2022/09/26 10:35:42;;;;;;;7.33;5.43;;;;;;;22.04;100.00;100142.94;1556533;89;21170;-58
2022/09/26 10:38:25;;;;;;;8.97;8.10;;;;;;;22.01;100.00;100143.98;1600479;87;22519;-57
2022/09/26 10:41:03;;;;;;;8.67;7.77;;;;;;;22.29;100.00;100136.14;1613438;88;20978;-60
2022/09/26 10:43:36;;;;;;;8.50;7.70;;;;;;;22.78;100.00;100136.42;1614321;88;21018;-59
2022/09/26 10:46:18;;;;;;;8.07;7.13;;;;;;;23.15;100.00;100129.24;1608079;88;21073;-58
2022/09/26 10:49:06;;;;;;;7.90;7.10;;;;;;;23.38;100.00;100139.28;1613359;88;21176;-58
2022/09/26 10:51:56;;;;;;;8.40;7.60;;;;;;;23.52;100.00;100134.98;1612436;87;21038;-59
2022/09/26 10:54:28;;;;;;;7.60;6.90;;;;;;;23.62;100.00;100132.02;1614139;88;22060;-57
2022/09/26 10:56:58;;;;;;;7.60;6.90;;;;;;;23.72;100.00;100131.47;1613666;88;21579;-59
2022/09/26 10:59:26;;;;;;;8.43;6.33;;;;;;;23.75;100.00;100129.60;1614387;88;21038;-57
2022/09/26 11:01:58;;;;;;;7.50;6.70;;;;;;;23.79;100.00;100125.86;1596718;88;21257;-57
2022/09/26 11:07:29;;;;;;;6.67;6.00;;;;;;;23.92;100.00;100133.77;1570675;89;21360;-57
2022/09/26 11:10:11;;;;;;;5.60;5.00;;;;;;;24.24;100.00;100127.97;1595035;89;20985;-63
2022/09/26 11:12:48;;;;;;;8.13;5.53;;;;;;;24.37;100.00;100113.25;1606928;89;21149;-58
2022/09/26 11:15:15;;;;;;;6.20;5.27;;;;;;;24.39;100.00;100110.58;1610636;88;21319;-61
2022/09/26 11:17:47;;;;;;;6.00;5.40;;;;;;;24.54;100.00;100113.66;1613099;88;20975;-57
2022/09/26 11:20:46;;;;;;;8.35;5.28;;;;;;;24.47;100.00;100109.18;1613016;88;21046;-66
2022/09/26 11:23:40;;;;;;;6.20;5.60;;;;;;;24.25;99.62;100114.39;1606766;89;21562;-58
2022/09/26 11:26:20;;;;;;;6.00;5.37;;;;;;;23.85;100.00;100111.44;1591382;89;21054;-58
2022/09/26 11:29:02;;;;;;;8.43;5.40;;;;;;;23.55;100.00;100112.34;1581642;90;21168;-57
2022/09/26 11:31:42;;;;;;;7.50;6.47;;;;;;;23.31;100.00;100104.98;1607635;89;22273;-60
2022/09/26 11:34:30;;;;;;;5.43;4.47;;;;;;;23.27;100.00;100105.27;1606233;89;21027;-64
2022/09/26 11:37:29;;;;;;;6.70;5.60;;;;;;;23.29;100.00;100097.80;1607454;87;21509;-62
2022/09/26 11:40:33;;;;;;;6.37;5.00;;;;;;;23.46;100.00;100098.81;1608027;89;21547;-59
2022/09/26 11:43:18;;;;;;;5.57;4.73;;;;;;;23.34;100.00;100104.20;1605446;88;21172;-57
2022/09/26 11:46:13;;;;;;;5.33;4.23;;;;;;;23.22;100.00;100085.34;1597651;89;22291;-57
2022/09/26 11:49:35;;;;;;;6.90;4.60;;;;;;;23.38;100.00;100084.75;1606255;89;21047;-59
2022/09/26 11:52:52;;;;;;;5.97;5.00;;;;;;;23.47;100.00;100079.12;1597195;89;21001;-57
2022/09/26 11:55:37;;;;;;;6.30;5.40;;;;;;;23.28;100.00;100082.91;1598223;89;21170;-59
2022/09/26 11:58:24;;;;;;;7.33;6.57;;;;;;;23.28;100.00;100084.78;1606996;87;21422;-60
2022/09/26 12:01:15;;;;;;;14.13;9.60;;;;;;;23.33;100.00;100074.11;1608294;88;20978;-58
2022/09/26 12:04:12;;;;;;;9.68;6.42;;;;;;;23.31;100.00;100077.59;1581490;90;21050;-58
2022/09/26 12:07:00;;;;;;;5.40;4.17;;;;;;;23.13;100.00;100079.52;1580858;90;21098;-67
2022/09/26 12:10:02;;;;;;;4.30;3.60;;;;;;;23.05;100.00;100073.68;1557575;89;36129;-58
2022/09/26 12:13:00;;;;;;;5.53;4.17;;;;;;;23.10;100.00;100072.86;1561150;89;21369;-64
2022/09/26 12:15:42;;;;;;;5.10;3.50;;;;;;;23.06;100.00;100071.28;1608033;88;21103;-62
2022/09/26 12:18:24;;;;;;;4.80;3.57;;;;;;;23.14;100.00;100080.56;1624130;88;21084;-56
2022/09/26 12:21:14;;;;;;;5.83;4.37;;;;;;;23.10;100.00;100070.20;1624933;87;21112;-57
2022/09/26 12:23:50;;;;;;;7.78;5.10;;;;;;;23.00;100.00;100081.68;1625035;88;22564;-57
2022/09/26 12:26:33;;;;;;;7.10;4.80;;;;;;;22.76;100.00;100075.30;1625144;88;21869;-60
2022/09/26 12:29:39;;;;;;;5.37;4.60;;;;;;;22.65;100.00;100069.73;1586344;89;21049;-58
2022/09/26 12:32:13;;;;;;;6.87;4.23;;;;;;;22.40;100.00;100075.33;1597354;89;21158;-58
2022/09/26 12:35:05;;;;;;;7.63;4.53;;;;;;;22.29;100.00;100074.53;1609064;89;21145;-57
2022/09/26 12:37:48;;;;;;;4.60;4.07;;;;;;;22.08;100.00;100076.32;1610067;89;20926;-57
2022/09/26 12:40:44;;;;;;;5.53;4.17;;;;;;;22.03;100.00;100072.34;1598683;89;21145;-56
2022/09/26 12:43:45;;;;;;;8.27;5.80;;;;;;;21.93;100.00;100075.50;1613980;88;21024;-64
2022/09/26 12:46:47;;;;;;;8.90;6.28;;;;;;;21.78;100.00;100076.27;1608583;89;21095;-58
2022/09/26 12:49:44;;;;;;;8.87;5.47;;;;;;;21.63;100.00;100078.36;1607991;88;21092;-58
2022/09/26 12:52:34;;;;;;;8.00;6.13;;;;;;;21.62;100.00;100084.70;1607613;89;21499;-58
2022/09/26 12:55:28;;;;;;;7.77;6.00;;;;;;;21.57;100.00;100085.49;1607917;89;21289;-59
2022/09/26 12:58:46;;;;;;;10.53;6.80;;;;;;;21.46;100.00;100085.19;1605851;89;21493;-59
2022/09/26 13:01:47;;;;;;;8.27;6.13;;;;;;;21.42;100.00;100085.97;1606691;89;21130;-60
2022/09/26 13:04:44;;;;;;;8.03;5.40;;;;;;;21.44;100.00;100088.64;1609439;89;21010;-63
2022/09/26 13:07:53;;;;;;;7.57;5.60;;;;;;;21.37;100.00;100080.11;1587826;89;21143;-57
2022/09/26 13:10:37;;;;;;;7.10;5.70;;;;;;;21.47;100.00;100078.81;1601616;89;21895;-57
2022/09/26 13:13:30;;;;;;;9.23;5.97;;;;;;;21.47;100.00;100069.53;1600947;88;21041;-58
2022/09/26 13:16:33;;;;;;;6.27;4.70;;;;;;;21.67;100.00;100068.83;1600904;89;21041;-58
2022/09/26 13:19:29;;;;;;;6.10;5.03;;;;;;;21.74;100.00;100071.20;1587791;89;20989;-58
2022/09/26 13:22:01;;;;;;;8.53;4.87;;;;;;;21.74;100.00;100066.70;1568280;89;21072;-57
2022/09/26 13:24:46;;;;;;;6.97;5.00;;;;;;;21.80;100.00;100063.55;1598869;89;21250;-58
2022/09/26 13:27:25;;;;;;;10.17;5.60;;;;;;;21.81;100.00;100063.80;1601999;89;21153;-65
2022/09/26 13:30:06;;;;;;;8.17;5.90;;;;;;;21.79;100.00;100064.61;1602250;89;21073;-57
2022/09/26 13:32:48;;;;;;;7.60;5.83;;;;;;;21.70;100.00;100060.86;1600256;89;21010;-58
2022/09/26 13:35:24;;;;;;;7.90;5.83;;;;;;;21.70;100.00;100056.34;1601077;89;21132;-58
2022/09/26 13:38:06;;;;;;;6.57;5.87;;;;;;;21.61;100.00;100060.58;1601998;89;21278;-57
2022/09/26 13:40:58;;;;;;;8.03;6.60;;;;;;;21.48;100.00;100053.91;1601305;89;21106;-60
2022/09/26 13:44:06;;;;;;;10.50;8.03;;;;;;;21.27;100.00;100053.52;1600129;88;20969;-57
2022/09/26 13:46:47;;;;;;;12.03;8.43;;;;;;;21.08;100.00;100054.48;1601090;89;21108;-58
2022/09/26 13:49:52;;;;;;;;;;;;;;;20.83;100.00;100056.45;1603425;88;20967;-57
2022/09/26 13:52:37;;;;;;;8.37;5.40;;;;;;;20.64;100.00;100066.12;1600854;89;21265;-59
2022/09/26 13:55:18;;;;;;;8.17;5.97;;;;;;;20.40;100.00;100069.62;1600745;88;21082;-58
2022/09/26 13:58:05;;;;;;;6.00;5.20;;;;;;;20.13;100.00;100069.66;1600741;89;21077;-58
2022/09/26 14:00:39;;;;;;;7.17;5.83;;;;;;;19.82;100.00;100076.49;1600964;88;20918;-58
2022/09/26 14:03:12;;;;;;;7.07;6.37;;;;;;;19.68;100.00;100078.71;1600379;89;21633;-58
2022/09/26 14:05:49;;;;;;;6.90;5.63;;;;;;;19.48;100.00;100077.13;1600818;89;21276;-58
2022/09/26 14:11:27;;;;;;;5.97;4.40;;;;;;;19.17;100.00;100068.81;1600815;89;21084;-58
2022/09/26 14:14:18;;;;;;;6.73;5.30;;;;;;;18.96;100.00;100072.20;1615308;88;21590;-58
2022/09/26 14:16:48;;;;;;;6.60;5.40;;;;;;;18.90;100.00;100077.95;1617411;88;21004;-58
2022/09/26 14:19:29;;;;;;;6.20;5.60;;;;;;;18.83;100.00;100080.48;1617350;88;21145;-59
2022/09/26 14:22:25;;;;;;;7.80;5.63;;;;;;;18.72;100.00;100075.56;1616802;88;21075;-64
2022/09/26 14:24:55;;;;;;;7.73;5.30;;;;;;;18.64;100.00;100064.05;1617189;88;20886;-59
2022/09/26 14:27:41;;;;;;;7.47;5.97;;;;;;;18.56;100.00;100064.43;1617088;88;21020;-60
2022/09/26 14:30:28;;;;;;;8.10;6.33;;;;;;;18.41;100.00;100066.30;1617387;88;21482;-59
2022/09/26 14:33:02;;;;;;;6.00;5.10;;;;;;;18.37;100.00;100065.19;1617236;88;21173;-57
2022/09/26 14:35:34;;;;;;;6.87;4.80;;;;;;;18.37;100.00;100065.19;1601624;88;21044;-57
2022/09/26 14:38:10;;;;;;;6.33;4.77;;;;;;;18.44;100.00;100067.16;1600459;89;21621;-58
2022/09/26 14:40:38;;;;;;;8.93;5.53;;;;;;;18.55;100.00;100064.95;1598694;89;21152;-59
2022/09/26 14:43:33;;;;;;;8.53;5.80;;;;;;;18.58;100.00;100069.77;1601291;88;20989;-58
2022/09/26 14:46:06;;;;;;;7.07;6.37;;;;;;;18.44;100.00;100074.55;1597152;89;21256;-58
2022/09/26 14:48:39;;;;;;;6.93;5.97;;;;;;;18.50;100.00;100072.02;1600955;89;21555;-59
2022/09/26 14:51:18;;;;;;;6.80;5.67;;;;;;;18.41;100.00;100072.91;1602012;89;21534;-58
2022/09/26 14:53:56;;;;;;;8.93;6.40;;;;;;;18.24;100.00;100080.29;1602064;89;21036;-57
2022/09/26 14:56:36;;;;;;;6.40;5.70;;;;;;;18.17;100.00;100074.36;1601829;89;20981;-58
2022/09/26 14:59:27;;;;;;;6.93;6.23;;;;;;;18.01;100.00;100082.25;1601791;89;21265;-57
2022/09/26 15:02:37;;;;;;;8.05;7.00;;;;;;;18.11;100.00;100083.23;1601439;88;21026;-59
2022/09/26 15:05:11;;;;;;;12.43;11.10;;;;;;;17.95;100.00;100065.52;1601948;88;21030;-61
2022/09/26 15:07:45;;;;;;;20.50;18.50;;;;;;;18.02;100.00;100065.38;1602767;88;21991;-59
2022/09/26 15:10:22;;;;;;;23.77;21.13;;;;;;;17.95;100.00;100070.79;1603466;89;21014;-59
2022/09/26 15:13:21;;;;;;;22.23;19.63;;;;;;;17.95;100.00;100067.63;1631584;87;20953;-61
2022/09/26 15:16:15;;;;;;;18.70;16.70;;;;;;;17.99;100.00;100053.45;1601398;88;21031;-58
2022/09/26 15:18:57;;;;;;;21.33;19.10;;;;;;;17.92;100.00;100044.39;1603001;87;21378;-59
2022/09/26 15:21:36;;;;;;;;;;;;;;;17.98;100.00;100057.14;1634893;87;20970;-59
2022/09/26 15:24:06;;;;;;;17.93;16.03;;;;;;;17.92;100.00;100060.22;1632043;87;20219;-58
2022/09/26 15:26:35;;;;;;;19.40;17.40;;;;;;;17.79;100.00;100064.95;1632017;86;21840;-59
2022/09/26 15:29:05;;;;;;;45.17;37.77;;;;;;;17.79;100.00;100071.55;1632541;87;21021;-59
2022/09/26 15:31:40;;;;;;;37.77;30.60;;;;;;;17.62;100.00;100069.63;1632385;87;21072;-58
2022/09/26 15:34:16;;;;;;;40.40;35.20;;;;;;;17.62;100.00;100065.67;1632234;87;21045;-58
2022/09/26 15:36:44;;;;;;;33.97;28.23;;;;;;;17.66;100.00;100072.60;1632518;87;20973;-59
2022/09/26 15:39:37;;;;;;;30.50;26.30;;;;;;;17.68;100.00;100075.27;1632403;87;21260;-59
2022/09/26 15:45:32;;;;;;;29.00;23.27;;;;;;;17.56;100.00;100075.83;1631929;87;21459;-59
2022/09/26 15:48:05;;;;;;;30.93;26.00;;;;;;;17.59;100.00;100072.73;1632412;87;21024;-59
2022/09/26 15:50:40;;;;;;;40.07;31.50;;;;;;;17.72;100.00;100076.92;1631835;87;21052;-59
2022/09/26 15:53:30;;;;;;;35.13;29.80;;;;;;;17.68;100.00;100079.22;1632261;87;21240;-57
2022/09/26 15:56:08;;;;;;;32.00;28.32;;;;;;;17.67;100.00;100082.10;1602520;89;21084;-57
2022/09/26 15:58:49;;;;;;;32.03;28.63;;;;;;;17.69;100.00;100082.16;1631566;87;21475;-58
2022/09/26 16:01:19;;;;;;;33.13;29.63;;;;;;;17.63;100.00;100093.63;1632480;87;21001;-58
2022/09/26 16:03:56;;;;;;;30.00;25.90;;;;;;;17.64;100.00;100099.70;1612153;87;20999;-58
2022/09/26 16:06:36;;;;;;;30.20;25.00;;;;;;;17.54;100.00;100097.67;1619157;86;22072;-57
2022/09/26 16:09:20;;;;;;;23.77;20.70;;;;;;;17.61;100.00;100094.37;1631970;87;20925;-59
2022/09/26 16:11:55;;;;;;;25.57;22.40;;;;;;;17.61;100.00;100094.89;1631417;87;21008;-64
2022/09/26 16:15:02;;;;;;;26.30;23.50;;;;;;;17.57;100.00;100099.82;1630922;86;21910;-60
2022/09/26 16:17:46;;;;;;;21.93;18.87;;;;;;;17.57;100.00;100101.14;1612754;87;21069;-59
2022/09/26 16:20:20;;;;;;;24.83;22.17;;;;;;;17.57;100.00;100099.82;1631853;87;21309;-58
2022/09/26 16:22:50;;;;;;;22.70;20.23;;;;;;;17.59;100.00;100095.13;1632162;87;20965;-62
2022/09/26 16:25:25;;;;;;;20.57;16.83;;;;;;;17.63;100.00;100096.78;1630540;87;21418;-59
2022/09/26 16:28:00;;;;;;;18.17;16.27;;;;;;;17.51;100.00;100100.77;1632338;87;21058;-58
2022/09/26 16:30:33;;;;;;;19.47;15.93;;;;;;;17.44;100.00;100102.72;1632315;87;20966;-63
2022/09/26 16:33:08;;;;;;;15.90;14.30;;;;;;;17.44;100.00;100102.72;1631524;86;22513;-59
2022/09/26 16:35:36;;;;;;;17.07;14.20;;;;;;;17.53;100.00;100100.00;1602378;89;20993;-58
2022/09/26 16:38:29;;;;;;;16.57;14.80;;;;;;;17.58;100.00;100105.89;1632092;87;20918;-62
2022/09/26 16:41:01;;;;;;;17.03;15.27;;;;;;;17.45;100.00;100106.44;1623930;87;21099;-58
2022/09/26 16:43:33;;;;;;;18.63;16.13;;;;;;;17.41;100.00;100103.98;1632527;87;20969;-58
2022/09/26 16:46:06;;;;;;;17.53;14.00;;;;;;;17.23;100.00;100106.22;1610743;87;21151;-58
2022/09/26 16:48:46;;;;;;;15.83;13.47;;;;;;;17.14;100.00;100094.97;1631339;87;21045;-59
2022/09/26 16:51:21;;;;;;;16.07;14.25;;;;;;;16.96;100.00;100098.51;1617929;87;21037;-60
2022/09/26 16:54:01;;;;;;;17.60;15.77;;;;;;;16.83;100.00;100105.33;1632320;87;21104;-58
2022/09/26 16:56:30;;;;;;;17.13;15.33;;;;;;;16.74;100.00;100099.57;1631628;87;21048;-58
2022/09/26 16:59:01;;;;;;;18.13;13.90;;;;;;;16.56;100.00;100112.29;1610672;86;22285;-59
2022/09/26 17:04:17;;;;;;;17.97;15.37;;;;;;;16.28;100.00;100121.56;1632326;87;21092;-59
2022/09/26 17:06:45;;;;;;;18.37;16.43;;;;;;;16.24;100.00;100124.36;1632089;87;20986;-63
2022/09/26 17:09:19;;;;;;;19.63;17.47;;;;;;;16.23;100.00;100136.42;1639530;87;20968;-59
2022/09/26 17:11:49;;;;;;;17.90;15.97;;;;;;;16.24;100.00;100138.83;1639465;87;21183;-59
2022/09/26 17:14:20;;;;;;;19.50;17.50;;;;;;;16.15;100.00;100132.28;1639401;87;21556;-60
2022/09/26 17:16:53;;;;;;;21.17;17.83;;;;;;;16.05;100.00;100118.85;1609745;89;21146;-59
2022/09/26 17:19:18;;;;;;;20.00;17.20;;;;;;;15.93;100.00;100108.28;1610184;89;21106;-59
2022/09/26 17:21:47;;;;;;;25.33;21.60;;;;;;;15.91;100.00;100117.41;1610240;89;20920;-59
2022/09/26 17:24:19;;;;;;;114.30;76.23;;;;;;;15.91;100.00;100111.66;1603910;89;22881;-59
2022/09/26 17:26:49;;;;;;;;;;;;;;;15.85;100.00;100107.28;1622758;87;20989;-59
2022/09/26 17:29:20;;;;;;;170.23;104.47;;;;;;;15.84;100.00;100098.31;1620875;88;20155;-59
2022/09/26 17:31:48;;;;;;;164.75;100.38;;;;;;;15.84;100.00;100095.69;1621465;88;22303;-59
2022/09/26 17:34:16;;;;;;;294.87;178.83;;;;;;;15.73;100.00;100088.83;1619977;87;20922;-59
2022/09/26 17:36:46;;;;;;;256.03;163.70;;;;;;;15.73;100.00;100091.97;1620832;88;21840;-59
2022/09/26 17:39:17;;;;;;;250.17;157.77;;;;;;;15.72;100.00;100085.09;1621185;88;21367;-59
2022/09/26 17:41:44;;;;;;;291.67;183.47;;;;;;;15.58;100.00;100084.43;1621044;88;21665;-58
2022/09/26 17:44:11;;;;;;;263.10;170.13;;;;;;;15.50;100.00;100087.36;1621474;88;21473;-59
2022/09/26 17:46:47;;;;;;;266.60;168.13;;;;;;;15.43;100.00;100093.19;1620606;88;20978;-59
2022/09/26 17:49:12;;;;;;;266.20;169.67;;;;;;;15.35;100.00;100097.42;1585430;88;21553;-58
2022/09/26 17:51:41;;;;;;;270.63;167.80;;;;;;;15.27;100.00;100095.38;1621242;88;21556;-58
2022/09/26 17:54:16;;;;;;;212.10;137.70;;;;;;;15.20;100.00;100098.56;1620960;88;20934;-58
2022/09/26 17:56:44;;;;;;;193.60;128.00;;;;;;;15.14;100.00;100096.00;1621317;88;20974;-59
2022/09/26 17:59:21;;;;;;;212.73;135.23;;;;;;;14.96;100.00;100091.51;1621256;88;20918;-57
2022/09/26 18:01:53;;;;;;;207.13;135.03;;;;;;;14.96;100.00;100081.01;1610283;87;21564;-58
2022/09/26 18:04:23;;;;;;;198.07;133.17;;;;;;;14.88;100.00;100085.22;1586550;88;21042;-58
2022/09/26 18:06:51;;;;;;;187.27;124.53;;;;;;;14.93;100.00;100089.34;1621658;88;21140;-58
2022/09/26 18:09:19;;;;;;;172.13;115.30;;;;;;;14.97;100.00;100093.14;1623036;87;20978;-58
2022/09/26 18:11:58;;;;;;;132.23;89.47;;;;;;;14.93;100.00;100095.39;1641681;86;21568;-61
2022/09/26 18:14:24;;;;;;;126.83;84.90;;;;;;;14.82;100.00;100091.64;1639541;86;21316;-58
2022/09/26 18:16:52;;;;;;;131.87;90.20;;;;;;;14.89;100.00;100085.02;1628060;88;21443;-58
2022/09/26 18:19:21;;;;;;;128.97;84.27;;;;;;;14.91;100.00;100090.05;1628176;88;21628;-58
2022/09/26 18:21:51;;;;;;;122.33;81.27;;;;;;;14.80;100.00;100096.28;1627760;88;20984;-59
2022/09/26 18:24:20;;;;;;;112.83;78.70;;;;;;;14.81;100.00;100087.41;1628085;88;21106;-58
2022/09/26 18:26:49;;;;;;;79.80;54.47;;;;;;;14.76;100.00;100089.05;1628146;88;21152;-58
2022/09/26 18:29:35;;;;;;;92.47;63.13;;;;;;;14.91;100.00;100082.97;1628033;88;20924;-58
2022/09/26 18:32:05;;;;;;;73.40;52.10;;;;;;;14.83;100.00;100082.73;1628140;88;21126;-58
2022/09/26 18:34:32;;;;;;;76.93;54.90;;;;;;;14.72;100.00;100080.01;1624222;88;20940;-58
2022/09/26 18:37:01;;;;;;;61.97;46.60;;;;;;;14.84;100.00;100079.09;1627979;88;21012;-58
2022/09/26 18:39:29;;;;;;;53.53;39.77;;;;;;;14.66;100.00;100085.63;1627538;88;21326;-58
2022/09/26 18:42:02;;;;;;;55.30;38.07;;;;;;;14.61;100.00;100093.30;1627900;88;20999;-58
2022/09/26 18:44:29;;;;;;;36.33;26.87;;;;;;;14.60;100.00;100091.70;1628057;88;21028;-58
2022/09/26 18:46:57;;;;;;;28.97;22.47;;;;;;;14.51;100.00;100092.48;1628062;88;21674;-58
2022/09/26 18:49:25;;;;;;;29.47;22.63;;;;;;;14.47;100.00;100090.44;1627301;88;21020;-58
2022/09/26 18:51:54;;;;;;;26.03;19.03;;;;;;;14.48;100.00;100088.14;1628231;88;22534;-57
2022/09/26 18:54:23;;;;;;;21.57;17.60;;;;;;;14.42;100.00;100083.73;1628044;88;20981;-57
2022/09/26 18:59:36;;;;;;;18.07;14.67;;;;;;;14.41;100.00;100092.63;1628182;88;21063;-58
2022/09/26 19:02:10;;;;;;;19.07;15.03;;;;;;;14.31;100.00;100095.19;1628015;88;20997;-58
2022/09/26 19:04:38;;;;;;;14.10;11.30;;;;;;;14.28;100.00;100091.70;1627522;88;21956;-57
2022/09/26 19:07:06;;;;;;;10.23;8.63;;;;;;;14.30;100.00;100084.92;1627513;88;21084;-61
2022/09/26 19:09:34;;;;;;;15.13;9.53;;;;;;;14.33;100.00;100081.88;1627703;87;21114;-57
2022/09/26 19:12:02;;;;;;;11.40;9.00;;;;;;;14.30;100.00;100074.43;1619295;87;21088;-58
2022/09/26 19:14:30;;;;;;;11.80;9.30;;;;;;;14.34;100.00;100065.13;1612244;88;21025;-58
2022/09/26 19:16:59;;;;;;;10.43;8.40;;;;;;;14.25;100.00;100065.89;1620808;88;21504;-62
2022/09/26 19:19:29;;;;;;;11.87;7.60;;;;;;;14.20;100.00;100064.39;1621458;88;21597;-58
2022/09/26 19:22:06;;;;;;;9.60;7.17;;;;;;;14.21;100.00;100063.91;1621329;88;20982;-58
2022/09/26 19:24:49;;;;;;;8.90;7.47;;;;;;;14.06;100.00;100061.07;1620462;88;20973;-58
2022/09/26 19:27:25;;;;;;;11.70;8.70;;;;;;;13.91;100.00;100059.23;1621330;88;21080;-58
2022/09/26 19:30:01;;;;;;;10.27;8.47;;;;;;;14.07;100.00;100062.66;1614159;87;21913;-58
2022/09/26 19:32:32;;;;;;;11.43;7.43;;;;;;;13.94;100.00;100059.30;1609340;88;21551;-59
2022/09/26 19:35:02;;;;;;;9.90;7.35;;;;;;;13.95;100.00;100053.87;1609287;89;21091;-58
2022/09/26 19:37:30;;;;;;;9.87;7.80;;;;;;;13.92;100.00;100050.86;1636819;86;21008;-58
2022/09/26 19:39:57;;;;;;;10.50;8.03;;;;;;;13.93;100.00;100051.16;1608988;89;21325;-58
2022/09/26 19:42:25;;;;;;;9.33;7.40;;;;;;;13.91;100.00;100047.45;1586479;88;21181;-59
2022/09/26 19:44:52;;;;;;;9.73;7.13;;;;;;;13.93;100.00;100051.16;1592003;90;21534;-58
2022/09/26 19:47:22;;;;;;;10.80;6.80;;;;;;;13.87;100.00;100042.33;1632343;87;21143;-58
2022/09/26 19:49:50;;;;;;;9.70;6.83;;;;;;;13.82;100.00;100033.77;1632473;87;21136;-58
2022/09/26 19:52:19;;;;;;;10.33;7.00;;;;;;;13.81;100.00;100036.09;1632719;87;21100;-61
2022/09/26 19:54:46;;;;;;;9.17;7.00;;;;;;;13.80;100.00;100036.31;1632099;87;21122;-58
2022/09/26 19:57:16;;;;;;;9.37;6.23;;;;;;;13.80;100.00;100029.26;1632472;87;20962;-58
2022/09/26 19:59:44;;;;;;;8.43;6.00;;;;;;;13.83;100.00;100034.08;1632281;87;21269;-58
2022/09/26 20:02:21;;;;;;;10.27;7.13;;;;;;;13.84;100.00;100043.54;1632172;87;21045;-61
2022/09/26 20:04:48;;;;;;;10.03;7.13;;;;;;;13.80;100.00;100038.42;1632244;87;21151;-58
2022/09/26 20:07:17;;;;;;;11.30;6.27;;;;;;;13.77;100.00;100044.08;1612147;87;21185;-58
2022/09/26 20:09:45;;;;;;;8.40;5.27;;;;;;;13.74;100.00;100047.62;1637941;86;21437;-58
2022/09/26 20:12:13;;;;;;;9.50;5.40;;;;;;;13.77;100.00;100044.08;1639009;87;21028;-58
2022/09/26 20:14:40;;;;;;;10.77;5.20;;;;;;;13.76;100.00;100041.67;1621760;87;21043;-58
2022/09/26 20:17:23;;;;;;;8.73;5.47;;;;;;;13.82;100.00;100042.93;1612927;89;21031;-58
2022/09/26 20:19:50;;;;;;;7.33;5.37;;;;;;;13.88;100.00;100043.41;1584198;89;21263;-58
2022/09/26 20:22:20;;;;;;;7.97;5.63;;;;;;;13.83;100.00;100055.05;1584593;89;21087;-58
2022/09/26 20:24:50;;;;;;;8.60;4.93;;;;;;;13.88;100.00;100051.79;1567835;87;21023;-58
2022/09/26 20:27:20;;;;;;;10.03;5.90;;;;;;;13.91;100.00;100055.30;1630170;87;21075;-58
2022/09/26 20:32:34;;;;;;;10.43;5.93;;;;;;;13.97;100.00;100050.52;1627838;86;21242;-58
2022/09/26 20:35:03;;;;;;;9.23;6.00;;;;;;;13.93;100.00;100045.91;1644244;86;20944;-58
2022/09/26 20:37:34;;;;;;;7.70;4.90;;;;;;;13.99;100.00;100037.22;1643952;86;21509;-58
2022/09/26 20:40:05;;;;;;;7.97;5.45;;;;;;;14.04;100.00;100032.14;1644514;87;21023;-59
2022/09/26 20:42:35;;;;;;;9.30;5.03;;;;;;;13.99;100.00;100024.92;1641549;87;20976;-59
2022/09/26 20:45:02;;;;;;;7.33;5.30;;;;;;;13.99;100.00;100030.67;1636715;87;21227;-61
2022/09/26 20:47:30;;;;;;;9.47;5.93;;;;;;;13.96;100.00;100035.02;1641212;87;21025;-58
2022/09/26 20:49:59;;;;;;;9.90;5.70;;;;;;;13.90;100.00;100027.98;1641427;86;21019;-58
2022/09/26 20:52:28;;;;;;;7.63;5.53;;;;;;;13.99;100.00;100013.13;1641503;87;21000;-58
2022/09/26 20:54:55;;;;;;;9.97;6.23;;;;;;;14.06;100.00;100017.83;1641705;86;21070;-60
2022/09/26 20:57:23;;;;;;;9.10;5.17;;;;;;;13.95;100.00;100005.91;1641016;87;21318;-58
2022/09/26 20:59:50;;;;;;;7.63;5.60;;;;;;;13.87;100.00;100005.14;1641329;87;21313;-58
2022/09/26 21:02:36;;;;;;;8.63;5.50;;;;;;;13.93;100.00;100010.03;1675761;79;21322;-59
2022/09/26 21:05:05;;;;;;;6.23;4.70;;;;;;;13.79;100.00;100011.94;1696281;84;20951;-59
2022/09/26 21:07:32;;;;;;;7.23;4.60;;;;;;;13.87;100.00;100009.06;1684371;83;20980;-58
2022/09/26 21:10:00;;;;;;;7.13;4.30;;;;;;;13.90;100.00;100010.95;1712300;82;21215;-61
2022/09/26 21:12:29;;;;;;;8.23;5.53;;;;;;;13.74;100.00;100005.19;1703445;83;21102;-58
2022/09/26 21:14:56;;;;;;;9.07;6.20;;;;;;;13.88;100.00;99998.88;1696800;84;21470;-59
2022/09/26 21:17:28;;;;;;;8.33;6.27;;;;;;;13.74;100.00;100005.70;1695398;83;21018;-58
2022/09/26 21:19:55;;;;;;;9.50;5.78;;;;;;;13.74;100.00;100010.44;1698077;84;21560;-58
2022/09/26 21:22:40;;;;;;;9.50;5.73;;;;;;;13.76;100.00;100010.24;1702752;82;21272;-57
2022/09/26 21:25:16;;;;;;;7.67;5.67;;;;;;;13.85;100.00;100008.97;1712756;83;21042;-57
2022/09/26 21:27:49;;;;;;;9.40;5.93;;;;;;;13.93;100.00;100005.30;1715929;83;21489;-61
2022/09/26 21:30:17;;;;;;;8.33;5.73;;;;;;;14.06;100.00;100013.09;1717856;83;21052;-59
2022/09/26 21:32:49;;;;;;;8.97;5.73;;;;;;;13.97;100.00;100007.79;1722705;82;21066;-58
2022/09/26 21:35:17;;;;;;;6.47;4.47;;;;;;;13.98;100.00;100010.22;1722860;83;21138;-58
2022/09/26 21:37:50;;;;;;;7.00;3.93;;;;;;;13.94;100.00;100009.52;1722461;83;21068;-61
2022/09/26 21:40:18;;;;;;;6.73;4.30;;;;;;;13.98;100.00;100010.70;1694657;83;22507;-58
2022/09/26 21:42:50;;;;;;;8.87;4.67;;;;;;;14.02;100.00;100008.78;1722895;83;21026;-58
2022/09/26 21:45:17;;;;;;;7.40;4.47;;;;;;;14.07;100.00;100019.93;1722816;83;20990;-58
2022/09/26 21:47:45;;;;;;;5.47;4.00;;;;;;;14.05;100.00;100021.95;1722497;83;22205;-61
2022/09/26 21:50:13;;;;;;;7.37;3.80;;;;;;;14.09;100.00;100017.89;1722731;83;21065;-58
2022/09/26 21:52:45;;;;;;;6.77;3.63;;;;;;;14.22;100.00;100019.64;1714430;83;20996;-58
2022/09/26 21:55:17;;;;;;;4.97;3.13;;;;;;;14.33;100.00;100017.13;1712945;83;21015;-58
2022/09/26 21:57:44;;;;;;;6.53;3.97;;;;;;;14.46;100.00;100008.86;1712651;83;20939;-59
2022/09/26 22:00:14;;;;;;;9.30;3.60;;;;;;;14.58;100.00;100006.68;1713120;83;20952;-58
2022/09/26 22:02:41;;;;;;;5.53;3.37;;;;;;;14.68;100.00;99999.62;1711921;83;21137;-57
2022/09/26 22:05:10;;;;;;;6.53;4.20;;;;;;;14.79;100.00;99998.91;1708047;84;21541;-57
2022/09/26 22:07:37;;;;;;;6.43;4.10;;;;;;;14.82;100.00;99993.23;1707473;84;21557;-57
2022/09/26 22:10:05;;;;;;;5.73;3.93;;;;;;;14.84;100.00;99993.80;1708112;84;21560;-57
2022/09/26 22:12:33;;;;;;;5.80;4.00;;;;;;;14.84;100.00;99988.55;1708102;84;21160;-57
2022/09/26 22:15:00;;;;;;;6.33;4.33;;;;;;;14.83;100.00;99991.41;1707959;84;20944;-57
2022/09/26 22:17:29;;;;;;;8.83;4.60;;;;;;;14.79;100.00;99991.55;1707664;84;20987;-62
2022/09/26 22:19:56;;;;;;;8.33;4.87;;;;;;;14.82;100.00;99995.05;1707752;84;21064;-57